KHOT/HOT METAR and TAF weather

Enter ICAO airport designator
Station Type Date Time Source
KHOT METAR 2024/05/28 23:53 UTC NOAA

KHOT 282353Z AUTO 00000KT 10SM CLR 27/18 A3008 RMK AO2 SLP179 T02720183 10283 20244 58007


Station Type Date Time Source
KHOT Decoded METAR 2024/05/28 23:53 UTC NOAA

HOT SPRINGS MEMORIAL FIELD, AR, United States (KHOT) 34-29N 093-06W 162M
May 28, 2024 - 07:53 PM EDT / 2024.05.28 2353 UTC
Wind: Calm:0
Visibility: 10 mile(s):0
Sky conditions: clear
Temperature: 81.0 F (27.2 C)
Dew Point: 64.9 F (18.3 C)
Relative Humidity: 58%
Pressure (altimeter): 30.08 in. Hg (1018 hPa)
Pressure tendency: 0.02 inches (0.7 hPa) lower than three hours ago
ob: KHOT 282353Z AUTO 00000KT 10SM CLR 27/18 A3008 RMK AO2 SLP179 T02720183 10283 20244 58007
cycle: 0

Station Type Date Time Source
KHOT TAF 2024/05/28 18:33 UTC NOAA